createdAt,value
2017-09-07T00:00:14.414Z,0
2017-09-07T00:00:55.007Z,0
2017-09-07T00:01:35.520Z,0
2017-09-07T00:02:16.104Z,0
2017-09-07T00:02:56.622Z,0
2017-09-07T00:03:37.155Z,0
2017-09-07T00:04:17.720Z,0
2017-09-07T00:04:58.279Z,0
2017-09-07T00:05:38.851Z,0
2017-09-07T00:06:19.400Z,0
2017-09-07T00:06:59.944Z,0
2017-09-07T00:07:40.522Z,0
2017-09-07T00:08:21.073Z,0
2017-09-07T00:09:01.642Z,0
2017-09-07T00:09:42.215Z,0
2017-09-07T00:10:22.773Z,0
2017-09-07T00:11:03.344Z,0
2017-09-07T00:11:43.907Z,0
2017-09-07T00:12:24.470Z,0
2017-09-07T00:13:05.012Z,0
2017-09-07T00:13:45.571Z,0
2017-09-07T00:14:26.132Z,0
2017-09-07T00:15:06.685Z,0
2017-09-07T00:15:47.231Z,0
2017-09-07T00:16:27.834Z,0
2017-09-07T00:17:08.408Z,0
2017-09-07T00:17:48.945Z,0
2017-09-07T00:18:29.496Z,0
2017-09-07T00:19:10.039Z,0
2017-09-07T00:19:50.607Z,0
2017-09-07T00:20:31.165Z,0
2017-09-07T00:21:11.728Z,0
2017-09-07T00:21:52.299Z,0
2017-09-07T00:22:32.857Z,0
2017-09-07T00:23:13.447Z,0
2017-09-07T00:23:54.008Z,0
2017-09-07T00:24:34.557Z,0
2017-09-07T00:25:15.126Z,0
2017-09-07T00:25:55.690Z,0
2017-09-07T00:26:36.251Z,0
2017-09-07T00:27:16.808Z,0
2017-09-07T00:27:57.375Z,0
2017-09-07T00:28:37.892Z,0
2017-09-07T00:29:18.423Z,0
2017-09-07T00:29:58.968Z,0
2017-09-07T00:30:39.540Z,0
2017-09-07T00:31:20.106Z,0
2017-09-07T00:32:00.678Z,0
2017-09-07T00:32:41.258Z,0
2017-09-07T00:33:21.812Z,0
2017-09-07T00:34:02.383Z,0
2017-09-07T00:34:42.943Z,0
2017-09-07T00:35:23.513Z,0
2017-09-07T00:36:04.077Z,0
2017-09-07T00:36:44.641Z,0
2017-09-07T00:37:25.217Z,0
2017-09-07T00:38:05.774Z,0
2017-09-07T00:38:46.330Z,0
2017-09-07T00:39:26.889Z,0
2017-09-07T00:40:07.486Z,0
2017-09-07T00:40:48.041Z,0
2017-09-07T00:41:28.575Z,0
2017-09-07T00:42:09.135Z,0
2017-09-07T00:42:49.642Z,0
2017-09-07T00:43:30.199Z,0
2017-09-07T00:44:10.753Z,0
2017-09-07T00:44:51.317Z,0
2017-09-07T00:45:31.833Z,0
2017-09-07T00:46:12.369Z,0
2017-09-07T00:46:52.924Z,0
2017-09-07T00:47:33.477Z,0
2017-09-07T00:48:14.035Z,0
2017-09-07T00:48:54.595Z,0
2017-09-07T00:49:35.150Z,0
2017-09-07T00:50:15.706Z,0
2017-09-07T00:50:56.238Z,0
2017-09-07T00:51:36.805Z,0
2017-09-07T00:52:17.348Z,0
2017-09-07T00:52:57.905Z,0
2017-09-07T00:53:38.461Z,0
2017-09-07T00:54:19.041Z,0
2017-09-07T00:54:59.575Z,0
2017-09-07T00:55:40.142Z,0
2017-09-07T00:56:20.723Z,0
2017-09-07T00:57:01.312Z,0
2017-09-07T00:57:41.897Z,0
2017-09-07T00:58:22.449Z,0
2017-09-07T00:59:03.038Z,0
2017-09-07T00:59:43.586Z,0
2017-09-07T01:00:24.154Z,0
2017-09-07T01:01:04.715Z,0
2017-09-07T01:01:45.268Z,0
2017-09-07T01:02:25.815Z,0
2017-09-07T01:03:06.353Z,0
2017-09-07T01:03:46.913Z,0
2017-09-07T01:04:27.467Z,0
2017-09-07T01:05:08.042Z,0
2017-09-07T01:05:48.609Z,0
2017-09-07T01:06:29.169Z,0
2017-09-07T01:07:09.745Z,0
2017-09-07T01:07:50.318Z,0
2017-09-07T01:08:30.872Z,0
2017-09-07T01:09:11.431Z,0
2017-09-07T01:09:52.005Z,0
2017-09-07T01:10:32.571Z,0
2017-09-07T01:11:13.112Z,0
2017-09-07T01:11:53.638Z,0
2017-09-07T01:12:34.212Z,0
2017-09-07T01:13:14.759Z,0
2017-09-07T01:13:55.311Z,0
2017-09-07T01:14:35.827Z,0
2017-09-07T01:15:16.386Z,0
2017-09-07T01:15:56.936Z,0
2017-09-07T01:16:37.485Z,0
2017-09-07T01:17:18.043Z,0
2017-09-07T01:17:58.586Z,0
2017-09-07T01:18:39.155Z,0
2017-09-07T01:19:19.687Z,0
2017-09-07T01:20:00.240Z,0
2017-09-07T01:20:40.800Z,0
2017-09-07T01:21:21.353Z,0
2017-09-07T01:22:01.930Z,0
2017-09-07T01:22:42.520Z,0
2017-09-07T01:23:23.073Z,0
2017-09-07T01:24:03.593Z,0
2017-09-07T01:24:44.167Z,0
2017-09-07T01:25:24.688Z,0
2017-09-07T01:26:05.206Z,0
2017-09-07T01:26:45.737Z,0
2017-09-07T01:27:26.275Z,0
2017-09-07T01:28:06.824Z,0
2017-09-07T01:28:47.396Z,0
2017-09-07T01:29:27.962Z,0
2017-09-07T01:30:08.525Z,0
2017-09-07T01:30:49.086Z,0
2017-09-07T01:31:29.631Z,0
2017-09-07T01:32:10.189Z,0
2017-09-07T01:32:50.756Z,0
2017-09-07T01:33:31.299Z,0
2017-09-07T01:34:11.855Z,0
2017-09-07T01:34:52.420Z,0
2017-09-07T01:35:32.964Z,0
2017-09-07T01:36:13.526Z,0
2017-09-07T01:36:54.086Z,0
2017-09-07T01:37:34.660Z,0
2017-09-07T01:38:15.211Z,0
2017-09-07T01:38:55.764Z,0
2017-09-07T01:39:36.334Z,0
2017-09-07T01:40:16.898Z,0
2017-09-07T01:40:57.439Z,0
2017-09-07T01:41:38.013Z,0
2017-09-07T01:42:18.562Z,0
2017-09-07T01:42:59.110Z,0
2017-09-07T01:43:39.667Z,0
2017-09-07T01:44:20.214Z,0
2017-09-07T01:45:00.800Z,0
2017-09-07T01:45:41.364Z,0
2017-09-07T01:46:21.927Z,0
2017-09-07T01:47:02.483Z,0
2017-09-07T01:47:43.039Z,0
2017-09-07T01:48:23.619Z,0
2017-09-07T01:49:04.183Z,0
2017-09-07T01:49:44.731Z,0
2017-09-07T01:50:25.302Z,0
2017-09-07T01:51:05.878Z,0
2017-09-07T01:51:46.441Z,0
2017-09-07T01:52:26.993Z,0
2017-09-07T01:53:07.568Z,0
2017-09-07T01:53:48.109Z,0
2017-09-07T01:54:28.671Z,0
2017-09-07T01:55:09.224Z,0
2017-09-07T01:55:49.785Z,0
2017-09-07T01:56:30.337Z,0
2017-09-07T01:57:10.893Z,0
2017-09-07T01:57:51.463Z,0
2017-09-07T01:58:32.005Z,0
2017-09-07T01:59:12.558Z,0
2017-09-07T01:59:53.105Z,0
2017-09-07T02:00:33.681Z,0
2017-09-07T02:01:14.243Z,0
2017-09-07T02:01:54.777Z,0
2017-09-07T02:02:35.330Z,0
2017-09-07T02:03:15.884Z,0
2017-09-07T02:03:56.432Z,0
2017-09-07T02:04:36.967Z,0
2017-09-07T02:05:17.535Z,0
2017-09-07T02:05:58.088Z,0
2017-09-07T02:06:38.634Z,0
2017-09-07T02:07:19.199Z,0
2017-09-07T02:07:59.766Z,0
2017-09-07T02:08:40.314Z,0
2017-09-07T02:09:20.874Z,0
2017-09-07T02:10:01.413Z,0
2017-09-07T02:10:41.955Z,0
2017-09-07T02:11:22.514Z,0
2017-09-07T02:12:03.084Z,0
2017-09-07T02:12:43.636Z,0
2017-09-07T02:13:24.191Z,0
2017-09-07T02:14:04.757Z,0
2017-09-07T02:14:45.340Z,0
2017-09-07T02:15:25.897Z,0
2017-09-07T02:16:06.456Z,0
2017-09-07T02:16:47.030Z,0
2017-09-07T02:17:27.559Z,0
2017-09-07T02:18:08.135Z,0
2017-09-07T02:18:48.702Z,0
2017-09-07T02:19:29.246Z,0
2017-09-07T02:20:09.840Z,0
2017-09-07T02:20:50.366Z,0
2017-09-07T02:21:30.950Z,0
2017-09-07T02:22:11.495Z,0
2017-09-07T02:22:52.047Z,0
2017-09-07T02:23:32.621Z,0
2017-09-07T02:24:13.146Z,0
2017-09-07T02:24:53.727Z,0
2017-09-07T02:25:34.287Z,0
2017-09-07T02:26:14.842Z,0
2017-09-07T02:26:55.388Z,0
2017-09-07T02:27:35.959Z,0
2017-09-07T02:28:16.532Z,0
2017-09-07T02:28:57.042Z,0
2017-09-07T02:29:37.591Z,0
2017-09-07T02:30:18.156Z,0
2017-09-07T02:30:58.695Z,0
2017-09-07T02:31:39.259Z,0
2017-09-07T02:32:19.838Z,0
2017-09-07T02:33:00.394Z,0
2017-09-07T02:33:40.966Z,0
2017-09-07T02:34:21.511Z,0
2017-09-07T02:35:02.062Z,0
2017-09-07T02:35:42.621Z,0
2017-09-07T02:36:23.191Z,0
2017-09-07T02:37:03.747Z,0
2017-09-07T02:37:44.287Z,0
2017-09-07T02:38:24.831Z,0
2017-09-07T02:39:05.409Z,0
2017-09-07T02:39:45.963Z,0
2017-09-07T02:40:26.517Z,0
2017-09-07T02:41:07.069Z,0
2017-09-07T02:41:47.635Z,0
2017-09-07T02:42:28.191Z,0
2017-09-07T02:43:08.725Z,0
2017-09-07T02:43:49.296Z,0
2017-09-07T02:44:29.857Z,0
2017-09-07T02:45:10.402Z,0
2017-09-07T02:45:50.953Z,0
2017-09-07T02:46:31.509Z,0
2017-09-07T02:47:12.053Z,0
2017-09-07T02:47:52.631Z,0
2017-09-07T02:48:33.168Z,0
2017-09-07T02:49:13.726Z,0
2017-09-07T02:49:54.288Z,0
2017-09-07T02:50:34.846Z,0
2017-09-07T02:51:15.412Z,0
2017-09-07T02:51:56.008Z,0
2017-09-07T02:52:36.545Z,0
2017-09-07T02:53:17.100Z,0
2017-09-07T02:53:57.643Z,0
2017-09-07T02:54:38.207Z,0
2017-09-07T02:55:18.752Z,0
2017-09-07T02:55:59.323Z,0
2017-09-07T02:56:39.867Z,0
2017-09-07T02:57:20.429Z,0
2017-09-07T02:58:00.984Z,0
2017-09-07T02:58:41.530Z,0
2017-09-07T02:59:22.087Z,0
2017-09-07T03:00:02.632Z,0
2017-09-07T03:00:43.187Z,0
2017-09-07T03:01:23.761Z,0
2017-09-07T03:02:04.318Z,0
2017-09-07T03:02:44.896Z,0
2017-09-07T03:03:25.459Z,0
2017-09-07T03:04:06.018Z,0
2017-09-07T03:04:46.559Z,0
2017-09-07T03:05:27.111Z,0
2017-09-07T03:06:07.660Z,0
2017-09-07T03:06:48.244Z,0
2017-09-07T03:07:28.801Z,0
2017-09-07T03:08:09.367Z,0
2017-09-07T03:08:49.903Z,0
2017-09-07T03:09:30.470Z,0
2017-09-07T03:10:11.035Z,0
2017-09-07T03:10:51.572Z,0
2017-09-07T03:11:32.133Z,0
2017-09-07T03:12:12.695Z,0
2017-09-07T03:12:53.233Z,0
2017-09-07T03:13:33.790Z,0
2017-09-07T03:14:14.341Z,0
2017-09-07T03:14:54.957Z,0
2017-09-07T03:15:35.466Z,0
2017-09-07T03:16:16.002Z,0
2017-09-07T03:16:56.540Z,0
2017-09-07T03:17:37.065Z,0
2017-09-07T03:18:17.613Z,0
2017-09-07T03:18:58.179Z,0
2017-09-07T03:19:38.755Z,0
2017-09-07T03:20:19.299Z,0
2017-09-07T03:20:59.860Z,0
2017-09-07T03:21:40.418Z,0
2017-09-07T03:22:20.979Z,0
2017-09-07T03:23:01.577Z,0
2017-09-07T03:23:42.120Z,0
2017-09-07T03:24:22.694Z,0
2017-09-07T03:25:03.251Z,0
2017-09-07T03:25:43.799Z,0
2017-09-07T03:26:25.178Z,0
2017-09-07T03:27:05.671Z,0
2017-09-07T03:27:46.222Z,0
2017-09-07T03:28:26.773Z,0
2017-09-07T03:29:07.340Z,0
2017-09-07T03:29:47.899Z,0
2017-09-07T03:30:28.431Z,0
2017-09-07T03:31:08.984Z,0
2017-09-07T03:31:49.527Z,0
2017-09-07T03:32:30.085Z,0
2017-09-07T03:33:10.644Z,0
2017-09-07T03:33:51.214Z,0
2017-09-07T03:34:31.735Z,0
2017-09-07T03:35:12.289Z,0
2017-09-07T03:35:52.861Z,0
2017-09-07T03:36:33.420Z,0
2017-09-07T03:37:13.972Z,0
2017-09-07T03:37:54.563Z,0
2017-09-07T03:38:35.087Z,0
2017-09-07T03:39:15.661Z,0
2017-09-07T03:39:56.224Z,0
2017-09-07T03:40:36.809Z,0
2017-09-07T03:41:17.365Z,0
2017-09-07T03:41:57.932Z,0
2017-09-07T03:42:38.508Z,0
2017-09-07T03:43:19.077Z,0
2017-09-07T03:43:59.631Z,0
2017-09-07T03:44:40.208Z,0
2017-09-07T03:45:20.774Z,0
2017-09-07T03:46:01.324Z,0
2017-09-07T03:46:41.878Z,0
2017-09-07T03:47:22.466Z,0
2017-09-07T03:48:03.031Z,0
2017-09-07T03:48:43.598Z,0
2017-09-07T03:49:24.166Z,0
2017-09-07T03:50:04.741Z,0
2017-09-07T03:50:45.293Z,0
2017-09-07T03:51:25.860Z,0
2017-09-07T03:52:06.433Z,0
2017-09-07T03:52:46.999Z,0
2017-09-07T03:53:27.575Z,0
2017-09-07T03:54:08.134Z,0
2017-09-07T03:54:48.699Z,0
2017-09-07T03:55:29.266Z,0
2017-09-07T03:56:09.838Z,0
2017-09-07T03:56:50.410Z,0
2017-09-07T03:57:30.983Z,0
2017-09-07T03:58:11.548Z,0
2017-09-07T03:58:52.108Z,0
2017-09-07T03:59:32.674Z,0
2017-09-07T04:00:13.258Z,0
2017-09-07T04:00:53.817Z,0
2017-09-07T04:01:34.387Z,0
2017-09-07T04:02:14.948Z,0
2017-09-07T04:02:55.524Z,0
2017-09-07T04:03:36.075Z,0
2017-09-07T04:04:16.657Z,0
2017-09-07T04:04:57.243Z,0
2017-09-07T04:05:37.797Z,0
2017-09-07T04:06:18.356Z,0
2017-09-07T04:06:58.927Z,0
2017-09-07T04:07:39.477Z,0
2017-09-07T04:08:20.052Z,0
2017-09-07T04:09:00.635Z,0
2017-09-07T04:09:41.215Z,0
2017-09-07T04:10:21.782Z,0
2017-09-07T04:11:02.357Z,0
2017-09-07T04:11:42.913Z,0
2017-09-07T04:12:23.500Z,0
2017-09-07T04:13:04.069Z,0
2017-09-07T04:13:44.640Z,0
2017-09-07T04:14:25.201Z,0
2017-09-07T04:15:05.773Z,0
2017-09-07T04:15:46.339Z,0
2017-09-07T04:16:26.882Z,0
2017-09-07T04:17:07.425Z,0
2017-09-07T04:17:48.003Z,0
2017-09-07T04:18:28.587Z,0
2017-09-07T04:19:09.152Z,0
2017-09-07T04:19:49.716Z,0
2017-09-07T04:20:30.293Z,0
2017-09-07T04:21:10.862Z,0
2017-09-07T04:21:51.399Z,0
2017-09-07T04:22:31.964Z,0
2017-09-07T04:23:12.528Z,0
2017-09-07T04:23:53.083Z,4
2017-09-07T04:24:33.636Z,4
2017-09-07T04:25:14.158Z,4
2017-09-07T04:25:54.718Z,0
2017-09-07T04:26:35.273Z,0
2017-09-07T04:27:15.845Z,4
2017-09-07T04:27:56.426Z,4
2017-09-07T04:28:36.978Z,4
2017-09-07T04:29:17.519Z,4
2017-09-07T04:29:58.085Z,4
2017-09-07T04:30:38.637Z,4
2017-09-07T04:31:19.243Z,4
2017-09-07T04:31:59.776Z,8
2017-09-07T04:32:40.329Z,8
2017-09-07T04:33:20.906Z,12
2017-09-07T04:34:01.477Z,12
2017-09-07T04:34:41.960Z,12
2017-09-07T04:35:22.484Z,12
2017-09-07T04:36:03.043Z,16
2017-09-07T04:36:43.624Z,16
2017-09-07T04:37:24.200Z,16
2017-09-07T04:38:04.757Z,20
2017-09-07T04:38:45.344Z,20
2017-09-07T04:39:25.889Z,24
2017-09-07T04:40:06.373Z,24
2017-09-07T04:40:46.936Z,28
2017-09-07T04:41:27.501Z,28
2017-09-07T04:42:08.054Z,28
2017-09-07T04:42:48.656Z,32
2017-09-07T04:43:29.221Z,36
2017-09-07T04:44:09.818Z,40
2017-09-07T04:44:50.336Z,44
2017-09-07T04:45:30.917Z,48
2017-09-07T04:46:11.502Z,48
2017-09-07T04:46:52.055Z,52
2017-09-07T04:47:32.604Z,60
2017-09-07T04:48:13.098Z,60
2017-09-07T04:48:53.658Z,68
2017-09-07T04:49:34.198Z,76
2017-09-07T04:50:14.728Z,80
2017-09-07T04:50:55.285Z,88
2017-09-07T04:51:35.842Z,92
2017-09-07T04:52:16.393Z,100
2017-09-07T04:52:56.949Z,108
2017-09-07T04:53:37.524Z,112
2017-09-07T04:54:18.178Z,124
2017-09-07T04:54:58.751Z,132
2017-09-07T04:55:39.300Z,140
2017-09-07T04:56:19.821Z,144
2017-09-07T04:57:00.411Z,148
2017-09-07T04:57:40.961Z,160
2017-09-07T04:58:21.513Z,168
2017-09-07T04:59:02.071Z,172
2017-09-07T04:59:42.631Z,180
2017-09-07T05:00:23.190Z,188
2017-09-07T05:01:03.765Z,192
2017-09-07T05:01:44.336Z,204
2017-09-07T05:02:24.922Z,212
2017-09-07T05:03:05.465Z,216
2017-09-07T05:03:46.003Z,224
2017-09-07T05:04:26.559Z,224
2017-09-07T05:05:07.110Z,232
2017-09-07T05:05:47.642Z,236
2017-09-07T05:06:28.202Z,240
2017-09-07T05:07:08.772Z,248
2017-09-07T05:07:49.327Z,256
2017-09-07T05:08:29.911Z,268
2017-09-07T05:09:10.464Z,284
2017-09-07T05:09:51.002Z,300
2017-09-07T05:10:31.574Z,320
2017-09-07T05:11:12.114Z,340
2017-09-07T05:11:52.720Z,368
2017-09-07T05:12:33.322Z,396
2017-09-07T05:13:13.886Z,424
2017-09-07T05:13:54.502Z,460
2017-09-07T05:14:34.987Z,496
2017-09-07T05:15:15.547Z,532
2017-09-07T05:15:56.137Z,560
2017-09-07T05:16:36.699Z,592
2017-09-07T05:17:17.267Z,628
2017-09-07T05:17:57.795Z,668
2017-09-07T05:18:38.401Z,716
2017-09-07T05:19:18.966Z,760
2017-09-07T05:19:59.556Z,804
2017-09-07T05:20:40.093Z,848
2017-09-07T05:21:20.660Z,888
2017-09-07T05:22:01.171Z,912
2017-09-07T05:22:41.784Z,932
2017-09-07T05:23:22.358Z,964
2017-09-07T05:24:02.963Z,1004
2017-09-07T05:24:43.847Z,1048
2017-09-07T05:25:24.246Z,1096
2017-09-07T05:26:04.931Z,1144
2017-09-07T05:26:45.492Z,1184
2017-09-07T05:27:26.051Z,1232
2017-09-07T05:28:06.619Z,1280
2017-09-07T05:28:47.186Z,1324
2017-09-07T05:29:27.763Z,1356
2017-09-07T05:30:08.325Z,1400
2017-09-07T05:30:48.889Z,1424
2017-09-07T05:31:29.449Z,1464
2017-09-07T05:32:10.015Z,1496
2017-09-07T05:32:50.597Z,1532
2017-09-07T05:33:31.142Z,1548
2017-09-07T05:34:11.731Z,1564
2017-09-07T05:34:52.285Z,1564
2017-09-07T05:35:32.846Z,1548
2017-09-07T05:36:13.518Z,1520
2017-09-07T05:36:53.956Z,1548
2017-09-07T05:37:34.530Z,1568
2017-09-07T05:38:15.100Z,1596
2017-09-07T05:38:55.667Z,1660
2017-09-07T05:39:36.248Z,1744
2017-09-07T05:40:16.828Z,1804
2017-09-07T05:40:57.387Z,1848
2017-09-07T05:41:37.961Z,1872
2017-09-07T05:42:18.504Z,1900
2017-09-07T05:42:59.059Z,1916
2017-09-07T05:43:39.605Z,1960
2017-09-07T05:44:20.235Z,1996
2017-09-07T05:45:00.674Z,2072
2017-09-07T05:45:41.255Z,2176
2017-09-07T05:46:21.763Z,2304
2017-09-07T05:47:02.304Z,2464
2017-09-07T05:47:42.991Z,2564
2017-09-07T05:48:23.488Z,2596
2017-09-07T05:49:04.005Z,2584
2017-09-07T05:49:44.556Z,2576
2017-09-07T05:50:25.138Z,2580
2017-09-07T05:51:05.631Z,2568
2017-09-07T05:51:46.169Z,2604
2017-09-07T05:52:26.739Z,2636
2017-09-07T05:53:07.295Z,2632
2017-09-07T05:53:47.855Z,2604
2017-09-07T05:54:28.451Z,2568
2017-09-07T05:55:08.969Z,2672
2017-09-07T05:55:49.534Z,2772
2017-09-07T05:56:30.095Z,2828
2017-09-07T05:57:10.659Z,2964
2017-09-07T05:57:51.239Z,3124
2017-09-07T05:58:31.730Z,3256
2017-09-07T05:59:12.321Z,3404
2017-09-07T05:59:52.817Z,3492
2017-09-07T06:00:33.375Z,3432
2017-09-07T06:01:13.980Z,3204
2017-09-07T06:01:54.589Z,3212
2017-09-07T06:02:35.108Z,3244
2017-09-07T06:03:15.660Z,3172
2017-09-07T06:03:56.211Z,3296
2017-09-07T06:04:36.736Z,3372
2017-09-07T06:05:17.302Z,3256
2017-09-07T06:05:57.856Z,3216
2017-09-07T06:06:38.400Z,3188
2017-09-07T06:07:18.955Z,3216
2017-09-07T06:07:59.470Z,3288
2017-09-07T06:08:40.123Z,3392
2017-09-07T06:09:20.677Z,3408
2017-09-07T06:10:01.191Z,3424
2017-09-07T06:10:41.783Z,3368
2017-09-07T06:11:22.351Z,3416
2017-09-07T06:12:02.906Z,3484
2017-09-07T06:12:43.458Z,3472
2017-09-07T06:13:24.092Z,3492
2017-09-07T06:14:04.580Z,3432
2017-09-07T06:14:45.146Z,3372
2017-09-07T06:15:25.719Z,3272
2017-09-07T06:16:06.305Z,3212
2017-09-07T06:16:46.867Z,3240
2017-09-07T06:17:27.368Z,3164
2017-09-07T06:18:07.994Z,3112
2017-09-07T06:18:48.691Z,3108
2017-09-07T06:19:29.264Z,3256
2017-09-07T06:20:10.207Z,3396
2017-09-07T06:20:51.223Z,3448
2017-09-07T06:21:31.907Z,3484
2017-09-07T06:22:12.457Z,3636
2017-09-07T06:22:52.997Z,3772
2017-09-07T06:23:33.525Z,3900
2017-09-07T06:24:14.220Z,4156
2017-09-07T06:24:54.763Z,4244
2017-09-07T06:25:35.358Z,4248
2017-09-07T06:26:15.873Z,4396
2017-09-07T06:26:56.412Z,4536
2017-09-07T06:27:36.997Z,4372
2017-09-07T06:28:17.527Z,4312
2017-09-07T06:28:58.117Z,4152
2017-09-07T06:29:38.686Z,4012
2017-09-07T06:30:19.178Z,4000
2017-09-07T06:30:59.747Z,4160
2017-09-07T06:31:40.255Z,4428
2017-09-07T06:32:20.812Z,4600
2017-09-07T06:33:01.364Z,4700
2017-09-07T06:33:41.916Z,4732
2017-09-07T06:34:22.605Z,4724
2017-09-07T06:35:03.132Z,4624
2017-09-07T06:35:43.670Z,4352
2017-09-07T06:36:24.268Z,4264
2017-09-07T06:37:04.806Z,4216
2017-09-07T06:37:45.326Z,4296
2017-09-07T06:38:25.889Z,4588
2017-09-07T06:39:06.478Z,4652
2017-09-07T06:39:47.090Z,4408
2017-09-07T06:40:27.681Z,4200
2017-09-07T06:41:08.198Z,4056
2017-09-07T06:41:48.748Z,3592
2017-09-07T06:42:29.395Z,3560
2017-09-07T06:43:09.937Z,3512
2017-09-07T06:43:50.568Z,3552
2017-09-07T06:44:31.114Z,3508
2017-09-07T06:45:11.704Z,3380
2017-09-07T06:45:52.244Z,3504
2017-09-07T06:46:32.843Z,3264
2017-09-07T06:47:13.408Z,3496
2017-09-07T06:47:53.924Z,3440
2017-09-07T06:48:34.533Z,3548
2017-09-07T06:49:15.110Z,3960
2017-09-07T06:49:55.613Z,4072
2017-09-07T06:50:36.458Z,3576
2017-09-07T06:51:17.422Z,3324
2017-09-07T06:51:58.068Z,3568
2017-09-07T06:52:38.534Z,3748
2017-09-07T06:53:19.030Z,3852
2017-09-07T06:53:59.907Z,3612
2017-09-07T06:54:40.545Z,3764
2017-09-07T06:55:20.973Z,4168
2017-09-07T06:56:01.583Z,4620
2017-09-07T06:56:42.194Z,4308
2017-09-07T06:57:22.812Z,4636
2017-09-07T06:58:03.363Z,4604
2017-09-07T06:58:43.917Z,4640
2017-09-07T06:59:24.435Z,4900
2017-09-07T07:00:04.977Z,4648
2017-09-07T07:00:45.547Z,4308
2017-09-07T07:01:26.108Z,4040
2017-09-07T07:02:06.671Z,3980
2017-09-07T07:02:47.197Z,4104
2017-09-07T07:03:27.768Z,4100
2017-09-07T07:04:08.304Z,4212
2017-09-07T07:04:48.851Z,5128
2017-09-07T07:05:29.404Z,5400
2017-09-07T07:06:09.951Z,4344
2017-09-07T07:06:50.602Z,5096
2017-09-07T07:07:31.189Z,4136
2017-09-07T07:08:11.680Z,3880
2017-09-07T07:08:52.269Z,3580
2017-09-07T07:09:32.780Z,3888
2017-09-07T07:10:13.282Z,4340
2017-09-07T07:10:53.860Z,5552
2017-09-07T07:11:34.421Z,6384
2017-09-07T07:12:14.979Z,6628
2017-09-07T07:12:55.479Z,5996
2017-09-07T07:13:36.015Z,6632
2017-09-07T07:14:16.586Z,6136
2017-09-07T07:14:57.131Z,6576
2017-09-07T07:15:37.682Z,6604
2017-09-07T07:16:18.231Z,6624
2017-09-07T07:16:58.796Z,6568
2017-09-07T07:17:39.391Z,6464
2017-09-07T07:18:19.939Z,6424
2017-09-07T07:19:00.488Z,6364
2017-09-07T07:19:41.010Z,6276
2017-09-07T07:20:21.571Z,6408
2017-09-07T07:21:02.095Z,6256
2017-09-07T07:21:42.593Z,6536
2017-09-07T07:22:23.119Z,6224
2017-09-07T07:23:03.686Z,5344
2017-09-07T07:23:44.205Z,3972
2017-09-07T07:24:24.723Z,3536
2017-09-07T07:25:05.247Z,3532
2017-09-07T07:25:45.812Z,3712
2017-09-07T07:26:26.409Z,3992
2017-09-07T07:27:06.977Z,4844
2017-09-07T07:27:47.595Z,5660
2017-09-07T07:28:28.127Z,6288
2017-09-07T07:29:08.687Z,6384
2017-09-07T07:29:49.244Z,7144
2017-09-07T07:30:29.825Z,6412
2017-09-07T07:31:10.386Z,5496
2017-09-07T07:31:50.907Z,5172
2017-09-07T07:32:31.497Z,4756
2017-09-07T07:33:12.026Z,4336
2017-09-07T07:33:52.563Z,4128
2017-09-07T07:34:33.055Z,4540
2017-09-07T07:35:13.625Z,4868
2017-09-07T07:35:54.202Z,4520
2017-09-07T07:36:34.700Z,5196
2017-09-07T07:37:15.273Z,5068
2017-09-07T07:37:55.812Z,5112
2017-09-07T07:38:36.390Z,4996
2017-09-07T07:39:16.938Z,4992
2017-09-07T07:39:57.482Z,5356
2017-09-07T07:40:38.060Z,5208
2017-09-07T07:41:18.562Z,4628
2017-09-07T07:41:59.115Z,4616
2017-09-07T07:42:39.644Z,4452
2017-09-07T07:43:20.208Z,4368
2017-09-07T07:44:00.779Z,4380
2017-09-07T07:44:41.343Z,4480
2017-09-07T07:45:21.918Z,4524
2017-09-07T07:46:02.436Z,4600
2017-09-07T07:46:43.001Z,4696
2017-09-07T07:47:23.568Z,4644
2017-09-07T07:48:04.233Z,4504
2017-09-07T07:48:44.731Z,4648
2017-09-07T07:49:25.329Z,4876
2017-09-07T07:50:05.884Z,4976
2017-09-07T07:50:46.491Z,4980
2017-09-07T07:51:27.048Z,4976
2017-09-07T07:52:07.619Z,5060
2017-09-07T07:52:48.312Z,5228
2017-09-07T07:53:28.906Z,5284
2017-09-07T07:54:09.439Z,5136
2017-09-07T07:54:50.013Z,5280
2017-09-07T07:55:30.615Z,5468
2017-09-07T07:56:11.154Z,5704
2017-09-07T07:56:51.651Z,5852
2017-09-07T07:57:32.211Z,6132
2017-09-07T07:58:12.789Z,6096
2017-09-07T07:58:53.333Z,5644
2017-09-07T07:59:33.908Z,5448
2017-09-07T08:00:14.450Z,5684
2017-09-07T08:00:55.101Z,5992
2017-09-07T08:01:35.699Z,5988
2017-09-07T08:02:16.299Z,5704
2017-09-07T08:02:56.931Z,5212
2017-09-07T08:03:37.549Z,5104
2017-09-07T08:04:18.117Z,5188
2017-09-07T08:04:58.611Z,5080
2017-09-07T08:05:39.202Z,4748
2017-09-07T08:06:19.801Z,4436
2017-09-07T08:07:00.389Z,4352
2017-09-07T08:07:40.961Z,4276
2017-09-07T08:08:21.565Z,4268
2017-09-07T08:09:02.148Z,4368
2017-09-07T08:09:42.715Z,4480
2017-09-07T08:10:23.219Z,4512
2017-09-07T08:11:03.793Z,4540
2017-09-07T08:11:44.389Z,4760
2017-09-07T08:12:24.973Z,4756
2017-09-07T08:13:05.490Z,4592
2017-09-07T08:13:46.002Z,4232
2017-09-07T08:14:26.567Z,3896
2017-09-07T08:15:07.166Z,3984
2017-09-07T08:15:47.681Z,4320
2017-09-07T08:16:28.253Z,4612
2017-09-07T08:17:08.785Z,4776
2017-09-07T08:17:49.313Z,4912
2017-09-07T08:18:29.889Z,5000
2017-09-07T08:19:10.548Z,4856
2017-09-07T08:19:51.076Z,4836
2017-09-07T08:20:31.666Z,4764
2017-09-07T08:21:12.204Z,4852
2017-09-07T08:21:52.732Z,4820
2017-09-07T08:22:33.280Z,4644
2017-09-07T08:23:13.823Z,4776
2017-09-07T08:23:54.386Z,5040
2017-09-07T08:24:34.942Z,5196
2017-09-07T08:25:15.490Z,5536
2017-09-07T08:25:56.045Z,5860
2017-09-07T08:26:36.586Z,6172
2017-09-07T08:27:17.122Z,6708
2017-09-07T08:27:57.708Z,6636
2017-09-07T08:28:38.308Z,6208
2017-09-07T08:29:18.857Z,6272
2017-09-07T08:29:59.366Z,6440
2017-09-07T08:30:39.955Z,5924
2017-09-07T08:31:20.496Z,5548
2017-09-07T08:32:01.123Z,5308
2017-09-07T08:32:41.597Z,5228
2017-09-07T08:33:22.135Z,5208
2017-09-07T08:34:02.662Z,5316
2017-09-07T08:34:43.216Z,5364
2017-09-07T08:35:23.760Z,5200
2017-09-07T08:36:04.319Z,5216
2017-09-07T08:36:44.881Z,5336
2017-09-07T08:37:25.419Z,5412
2017-09-07T08:38:05.965Z,5556
2017-09-07T08:38:46.479Z,5436
2017-09-07T08:39:27.037Z,5276
2017-09-07T08:40:07.622Z,5248
2017-09-07T08:40:48.121Z,5300
2017-09-07T08:41:28.639Z,5496
2017-09-07T08:42:09.165Z,5476
2017-09-07T08:42:49.712Z,5316
2017-09-07T08:43:30.249Z,5196
2017-09-07T08:44:10.958Z,5144
2017-09-07T08:44:51.511Z,5184
2017-09-07T08:45:32.060Z,5284
2017-09-07T08:46:12.636Z,5412
2017-09-07T08:46:53.176Z,5516
2017-09-07T08:47:33.775Z,5644
2017-09-07T08:48:14.303Z,5768
2017-09-07T08:48:54.864Z,5948
2017-09-07T08:49:35.399Z,6068
2017-09-07T08:50:15.974Z,6128
2017-09-07T08:50:56.551Z,6092
2017-09-07T08:51:37.053Z,6036
2017-09-07T08:52:17.607Z,5968
2017-09-07T08:52:58.190Z,5940
2017-09-07T08:53:38.813Z,5884
2017-09-07T08:54:19.289Z,5836
2017-09-07T08:54:59.859Z,5828
2017-09-07T08:55:40.432Z,5772
2017-09-07T08:56:21.045Z,5480
2017-09-07T08:57:01.568Z,5212
2017-09-07T08:57:42.118Z,5216
2017-09-07T08:58:22.689Z,5148
2017-09-07T08:59:03.255Z,5188
2017-09-07T08:59:43.806Z,5208
2017-09-07T09:00:24.357Z,5052
2017-09-07T09:01:04.940Z,4924
2017-09-07T09:01:45.432Z,4796
2017-09-07T09:02:25.990Z,4604
2017-09-07T09:03:06.515Z,4312
2017-09-07T09:03:47.064Z,4220
2017-09-07T09:04:27.626Z,4300
2017-09-07T09:05:08.124Z,4268
2017-09-07T09:05:48.677Z,4224
2017-09-07T09:06:29.283Z,4244
2017-09-07T09:07:09.773Z,4504
2017-09-07T09:07:50.324Z,4500
2017-09-07T09:08:30.886Z,4492
2017-09-07T09:09:11.434Z,4848
2017-09-07T09:09:52.109Z,4836
2017-09-07T09:10:32.675Z,4672
2017-09-07T09:11:13.262Z,4636
2017-09-07T09:11:53.832Z,4820
2017-09-07T09:12:34.414Z,4916
2017-09-07T09:13:14.966Z,4764
2017-09-07T09:13:55.533Z,4636
2017-09-07T09:14:36.119Z,4588
2017-09-07T09:15:16.675Z,4692
2017-09-07T09:15:57.229Z,4856
2017-09-07T09:16:37.820Z,5012
2017-09-07T09:17:18.380Z,5036
2017-09-07T09:17:58.976Z,5036
2017-09-07T09:18:39.531Z,5036
2017-09-07T09:19:20.094Z,5044
2017-09-07T09:20:00.650Z,5092
2017-09-07T09:20:41.224Z,5296
2017-09-07T09:21:21.790Z,5380
2017-09-07T09:22:02.352Z,5204
2017-09-07T09:22:42.903Z,4952
2017-09-07T09:23:23.469Z,4684
2017-09-07T09:24:04.007Z,4492
2017-09-07T09:24:44.540Z,4376
2017-09-07T09:25:25.091Z,4428
2017-09-07T09:26:05.639Z,4328
2017-09-07T09:26:46.210Z,4404
2017-09-07T09:27:26.765Z,4604
2017-09-07T09:28:07.337Z,4836
2017-09-07T09:28:47.891Z,5124
2017-09-07T09:29:28.474Z,5280